createdAt,value
2023-03-17T08:25:14.957Z,91.50
2023-03-17T08:27:43.170Z,91.70
2023-03-17T08:30:11.367Z,92.00
2023-03-17T08:32:38.719Z,92.10
2023-03-17T08:35:07.125Z,91.60
2023-03-17T08:37:34.228Z,91.70
2023-03-17T08:40:01.373Z,91.50
2023-03-17T08:42:28.572Z,91.30
2023-03-17T08:44:55.774Z,91.30
2023-03-17T08:47:23.792Z,90.90
2023-03-17T08:49:50.994Z,90.80
2023-03-17T08:52:18.202Z,90.80
2023-03-17T08:54:45.461Z,89.00
2023-03-17T08:57:15.599Z,89.40
2023-03-17T08:59:43.230Z,90.30
2023-03-17T09:02:12.829Z,90.40
2023-03-17T09:04:40.344Z,90.40
2023-03-17T09:07:09.587Z,90.10
2023-03-17T09:09:37.762Z,89.30
2023-03-17T09:12:06.703Z,88.60
2023-03-17T09:14:42.897Z,87.60
2023-03-17T09:17:11.343Z,87.00
2023-03-17T09:19:39.010Z,85.20
2023-03-17T09:22:06.875Z,84.90
2023-03-17T09:24:34.739Z,83.10
2023-03-17T09:27:02.202Z,82.50
2023-03-17T09:29:29.350Z,83.00
2023-03-17T09:31:59.208Z,82.80
2023-03-17T09:34:26.875Z,82.30
2023-03-17T09:36:54.527Z,82.00
2023-03-17T09:39:24.391Z,81.80
2023-03-17T09:42:08.734Z,80.70
2023-03-17T09:44:55.972Z,83.20
2023-03-17T09:47:44.981Z,81.30
2023-03-17T09:50:24.291Z,79.70
2023-03-17T09:52:52.740Z,80.20
2023-03-17T09:55:30.309Z,81.30
2023-03-17T09:57:59.016Z,80.40
2023-03-17T10:00:29.960Z,81.30
2023-03-17T10:02:58.436Z,80.30
2023-03-17T10:05:36.274Z,80.00
2023-03-17T10:08:32.548Z,79.30
2023-03-17T10:11:09.600Z,79.70
2023-03-17T10:13:55.182Z,79.80
2023-03-17T10:16:40.288Z,79.40
2023-03-17T10:19:19.483Z,77.30
2023-03-17T10:21:56.103Z,78.70
2023-03-17T10:24:24.532Z,79.60
2023-03-17T10:26:56.032Z,76.40
2023-03-17T10:29:25.445Z,77.70
2023-03-17T10:31:56.384Z,76.10
2023-03-17T10:34:32.803Z,76.80
2023-03-17T10:37:12.532Z,77.20
2023-03-17T10:39:45.837Z,78.90
2023-03-17T10:42:27.670Z,76.20
2023-03-17T10:45:13.598Z,75.20
2023-03-17T10:47:44.907Z,75.70
2023-03-17T10:50:20.480Z,72.60
2023-03-17T10:52:48.093Z,72.80
2023-03-17T10:55:20.800Z,72.10
2023-03-17T10:58:15.703Z,75.50
2023-03-17T11:01:03.881Z,70.90
2023-03-17T11:03:39.009Z,72.70
2023-03-17T11:06:11.755Z,71.10
2023-03-17T11:08:49.503Z,73.90
2023-03-17T11:11:26.543Z,73.20
2023-03-17T11:14:04.232Z,71.10
2023-03-17T11:16:35.280Z,73.20
2023-03-17T11:19:03.648Z,72.30
2023-03-17T11:21:34.851Z,71.70
2023-03-17T11:24:31.449Z,73.10
2023-03-17T11:27:14.453Z,73.20
2023-03-17T11:30:05.480Z,72.40
2023-03-17T11:32:56.650Z,70.10
2023-03-17T11:35:58.125Z,71.40
2023-03-17T11:38:28.606Z,74.70
2023-03-17T11:41:05.069Z,74.10
2023-03-17T11:43:53.522Z,73.40
2023-03-17T11:46:49.497Z,70.10
2023-03-17T11:49:40.093Z,70.40
2023-03-17T11:52:28.800Z,72.40
2023-03-17T11:54:57.545Z,73.00
2023-03-17T11:57:44.549Z,71.80
2023-03-17T12:00:19.170Z,72.30
2023-03-17T12:02:54.817Z,70.90
2023-03-17T12:05:28.523Z,71.80
2023-03-17T12:08:33.508Z,71.40
2023-03-17T12:11:05.776Z,71.80
2023-03-17T12:13:43.216Z,71.40
2023-03-17T12:17:00.957Z,73.80
2023-03-17T12:19:37.118Z,71.30
2023-03-17T12:22:16.035Z,71.60
2023-03-17T12:24:57.225Z,70.70
2023-03-17T12:27:32.708Z,71.20
2023-03-17T12:30:05.550Z,71.70
2023-03-17T12:32:48.566Z,73.60
2023-03-17T12:35:32.571Z,69.70
2023-03-17T12:38:27.405Z,70.20
2023-03-17T12:41:19.433Z,70.80
2023-03-17T12:44:01.384Z,72.00
2023-03-17T12:46:31.896Z,70.60
2023-03-17T12:49:23.685Z,70.40
2023-03-17T12:51:59.631Z,69.30
2023-03-17T12:54:34.416Z,71.60
2023-03-17T12:57:12.576Z,70.50
2023-03-17T12:59:43.362Z,70.30
2023-03-17T13:02:18.640Z,71.90
2023-03-17T13:05:01.135Z,71.70
2023-03-17T13:07:42.220Z,69.30
2023-03-17T13:10:37.604Z,68.30
2023-03-17T13:13:07.413Z,68.50
2023-03-17T13:15:35.125Z,72.60
2023-03-17T13:18:17.075Z,69.70
2023-03-17T13:20:56.624Z,68.40
2023-03-17T13:23:53.654Z,68.40
2023-03-17T13:26:41.857Z,69.90
2023-03-17T13:29:32.867Z,69.20
2023-03-17T13:32:26.982Z,67.50
2023-03-17T13:35:16.107Z,67.90
2023-03-17T13:37:58.305Z,68.80
2023-03-17T13:40:36.550Z,67.40
2023-03-17T13:43:13.235Z,66.90
2023-03-17T13:45:43.316Z,67.40
2023-03-17T13:48:37.029Z,70.20
2023-03-17T13:51:15.137Z,70.40
2023-03-17T13:53:47.913Z,71.00
2023-03-17T13:56:26.686Z,69.40
2023-03-17T13:59:06.532Z,70.40
2023-03-17T14:02:16.024Z,70.00
2023-03-17T14:04:54.795Z,70.30
2023-03-17T14:07:33.726Z,70.50
2023-03-17T14:10:10.661Z,68.60
2023-03-17T14:12:45.227Z,66.30
2023-03-17T14:15:35.155Z,66.80
2023-03-17T14:18:14.545Z,67.00
2023-03-17T14:20:53.774Z,70.60
2023-03-17T14:23:21.645Z,71.00
2023-03-17T14:25:51.046Z,67.40
2023-03-17T14:32:17.449Z,66.90
2023-03-17T14:35:04.157Z,67.70
2023-03-17T14:37:31.360Z,68.50
2023-03-17T14:39:59.432Z,66.80
2023-03-17T14:42:31.612Z,68.50
2023-03-17T14:45:08.371Z,68.50
2023-03-17T14:47:41.206Z,69.20
2023-03-17T14:50:25.304Z,68.50
2023-03-17T14:52:52.601Z,67.20
2023-03-17T15:02:48.111Z,69.00
2023-03-17T15:05:41.628Z,69.30
2023-03-17T15:08:41.552Z,68.40
2023-03-17T15:11:15.508Z,67.60
2023-03-17T15:17:22.817Z,66.70
2023-03-17T15:19:52.788Z,67.90
2023-03-17T15:22:34.753Z,68.70
2023-03-17T15:25:21.028Z,69.20
2023-03-17T15:27:48.632Z,70.00
2023-03-17T15:30:17.833Z,68.30
2023-03-17T15:32:45.176Z,67.50
2023-03-17T15:35:14.301Z,68.70
2023-03-17T15:37:41.941Z,67.70
2023-03-17T15:40:11.604Z,67.60
2023-03-17T15:42:39.950Z,67.60
2023-03-17T15:45:08.053Z,67.70
2023-03-17T15:47:37.147Z,67.50
2023-03-17T15:50:29.651Z,69.70
2023-03-17T15:52:58.042Z,70.90
2023-03-17T15:55:31.296Z,70.20
2023-03-17T15:57:59.163Z,69.70
2023-03-17T16:00:30.059Z,70.50
2023-03-17T16:03:01.549Z,67.80
2023-03-17T16:05:32.035Z,68.90
2023-03-17T16:07:59.083Z,68.60
2023-03-17T16:10:32.106Z,69.00
2023-03-17T16:12:59.582Z,69.00
2023-03-17T16:15:31.363Z,68.80
2023-03-17T16:18:07.291Z,70.10
2023-03-17T16:20:44.136Z,70.20
2023-03-17T16:23:21.405Z,70.50
2023-03-17T16:25:48.757Z,69.80
2023-03-17T16:28:27.728Z,70.50
2023-03-17T16:30:56.498Z,71.20
2023-03-17T16:33:28.788Z,71.40
2023-03-17T16:35:57.629Z,70.80
2023-03-17T16:38:26.930Z,71.20
2023-03-17T16:40:56.395Z,71.00
2023-03-17T16:43:33.052Z,71.80
2023-03-17T16:49:40.416Z,71.90
2023-03-17T16:52:07.469Z,72.30
2023-03-17T16:54:34.457Z,73.30
2023-03-17T16:57:01.648Z,74.00
2023-03-17T16:59:31.590Z,73.70
2023-03-17T17:01:58.968Z,72.90
2023-03-17T17:04:26.287Z,73.10
2023-03-17T17:06:53.339Z,73.50
2023-03-17T17:09:21.952Z,73.40
2023-03-17T17:11:49.009Z,73.90
2023-03-17T17:14:16.056Z,74.80
2023-03-17T17:16:43.136Z,75.40
2023-03-17T17:19:17.428Z,76.40
2023-03-17T17:21:45.556Z,77.10
2023-03-17T17:24:13.766Z,75.10
2023-03-17T17:26:41.402Z,74.60
2023-03-17T17:29:08.491Z,76.90
2023-03-17T17:31:35.699Z,77.60
2023-03-17T17:34:02.727Z,76.90
2023-03-17T17:36:30.182Z,77.20
2023-03-17T17:38:57.482Z,77.90
2023-03-17T17:42:06.872Z,77.30
2023-03-17T17:44:33.866Z,77.80
2023-03-17T17:47:00.909Z,76.90
2023-03-17T17:49:28.010Z,77.50
2023-03-17T17:51:55.006Z,77.20
2023-03-17T17:54:22.410Z,76.60
2023-03-17T17:56:49.355Z,76.80
2023-03-17T17:59:16.808Z,78.20
2023-03-17T18:01:43.808Z,78.30
2023-03-17T18:04:12.884Z,78.90
2023-03-17T18:06:40.204Z,78.90
2023-03-17T18:09:07.455Z,79.20
2023-03-17T18:11:34.495Z,79.00
2023-03-17T18:14:01.462Z,79.20
2023-03-17T18:16:28.616Z,78.40
2023-03-17T18:18:57.896Z,79.90
2023-03-17T18:21:24.887Z,79.10
2023-03-17T18:23:55.231Z,78.50
2023-03-17T18:26:23.234Z,79.60
2023-03-17T18:28:50.994Z,79.50
2023-03-17T18:31:41.958Z,80.80
2023-03-17T18:34:19.247Z,81.00
2023-03-17T18:36:48.238Z,82.00
2023-03-17T18:39:16.256Z,82.60
2023-03-17T18:41:44.352Z,84.00
2023-03-17T18:44:12.906Z,84.40
2023-03-17T18:46:39.951Z,85.50
2023-03-17T18:49:08.976Z,85.00
2023-03-17T18:51:36.608Z,85.10
2023-03-17T18:54:05.034Z,84.70
2023-03-17T18:56:32.120Z,84.70
2023-03-17T18:58:59.752Z,85.10
2023-03-17T19:01:27.516Z,85.80
2023-03-17T19:03:54.763Z,86.40
2023-03-17T19:06:23.396Z,87.00
2023-03-17T19:08:51.361Z,87.50
2023-03-17T19:11:21.669Z,87.80
2023-03-17T19:13:49.401Z,88.00
2023-03-17T19:16:17.108Z,88.10
2023-03-17T19:18:44.571Z,87.50
2023-03-17T19:21:13.351Z,87.20
2023-03-17T19:23:41.616Z,86.90
2023-03-17T19:26:08.984Z,86.70
2023-03-17T19:28:36.140Z,86.80
2023-03-17T19:31:03.325Z,87.00
2023-03-17T19:37:07.831Z,86.80
2023-03-17T19:39:35.178Z,87.20
2023-03-17T19:42:02.327Z,87.60
2023-03-17T19:44:29.373Z,88.70
2023-03-17T19:46:57.504Z,88.40
2023-03-17T19:49:25.115Z,89.30
2023-03-17T19:51:52.619Z,90.10
2023-03-17T19:54:23.501Z,88.40
2023-03-17T19:56:50.649Z,88.20
2023-03-17T19:59:19.913Z,89.00
2023-03-17T20:01:48.858Z,89.30
2023-03-17T20:04:19.786Z,89.40
2023-03-17T20:06:47.342Z,89.30
2023-03-17T20:09:15.107Z,88.60
2023-03-17T20:11:42.248Z,88.10
2023-03-17T20:14:09.460Z,87.40
2023-03-17T20:16:37.143Z,87.20
2023-03-17T20:19:04.412Z,87.20
2023-03-17T20:21:31.605Z,87.10
2023-03-17T20:23:58.726Z,86.70
2023-03-17T20:26:25.909Z,86.90
2023-03-17T20:28:53.975Z,87.40
2023-03-17T20:31:21.221Z,88.30
2023-03-17T20:33:49.766Z,87.70
2023-03-17T20:36:16.863Z,88.80
2023-03-17T20:38:44.225Z,88.20
2023-03-17T20:41:13.879Z,88.00
2023-03-17T20:43:41.891Z,88.50
2023-03-17T20:46:16.122Z,89.30
2023-03-17T20:48:44.448Z,89.50
2023-03-17T20:51:16.623Z,89.70
2023-03-17T20:53:48.014Z,89.50
2023-03-17T20:56:20.429Z,89.70
2023-03-17T20:58:48.652Z,90.10
2023-03-17T21:01:20.772Z,90.10
2023-03-17T21:03:48.846Z,90.00
2023-03-17T21:06:16.296Z,90.90
2023-03-17T21:08:43.492Z,90.60
2023-03-17T21:12:02.920Z,91.00
2023-03-17T21:14:29.966Z,91.10
2023-03-17T21:16:58.036Z,91.70
2023-03-17T21:19:25.083Z,91.90
2023-03-17T21:21:52.129Z,92.20
2023-03-17T21:27:56.823Z,92.00
2023-03-17T21:30:23.928Z,91.70
2023-03-17T21:32:51.080Z,91.90
2023-03-17T21:35:18.323Z,91.80
2023-03-17T21:41:39.559Z,91.60
2023-03-17T21:44:08.042Z,92.30
2023-03-17T21:46:35.097Z,91.60
2023-03-17T21:49:05.612Z,91.60
2023-03-17T21:51:33.071Z,91.70
2023-03-17T21:54:00.927Z,91.20
2023-03-17T21:56:28.994Z,91.30
2023-03-17T21:58:56.719Z,91.30
2023-03-17T22:01:24.392Z,91.70
2023-03-17T22:03:55.012Z,91.50
